createdAt,value
2018-05-02T00:03:49.197Z,90.90
2018-05-02T00:08:52.273Z,91.00
2018-05-02T00:13:56.105Z,91.10
2018-05-02T00:18:59.950Z,91.10
2018-05-02T00:24:03.054Z,91.10
2018-05-02T00:29:07.301Z,90.90
2018-05-02T00:34:11.130Z,91.00
2018-05-02T00:39:14.790Z,90.90
2018-05-02T00:44:18.658Z,90.80
2018-05-02T00:49:21.752Z,90.90
2018-05-02T00:54:24.839Z,91.10
2018-05-02T00:59:29.417Z,91.20
2018-05-02T01:04:32.494Z,91.20
2018-05-02T01:09:35.562Z,91.10
2018-05-02T01:14:39.421Z,91.30
2018-05-02T01:19:42.896Z,91.60
2018-05-02T01:24:45.968Z,91.80
2018-05-02T01:29:49.034Z,91.80
2018-05-02T01:34:53.198Z,91.80
2018-05-02T01:39:56.283Z,91.90
2018-05-02T01:45:00.495Z,91.90
2018-05-02T01:50:04.045Z,92.10
2018-05-02T01:55:07.132Z,92.00
2018-05-02T02:00:10.958Z,92.00
2018-05-02T02:05:15.214Z,92.10
2018-05-02T02:10:19.814Z,92.30
2018-05-02T02:15:22.882Z,92.60
2018-05-02T02:20:26.713Z,92.60
2018-05-02T02:25:29.813Z,92.70
2018-05-02T02:30:32.881Z,92.80
2018-05-02T02:35:36.348Z,93.10
2018-05-02T02:40:39.411Z,93.30
2018-05-02T02:45:42.881Z,93.20
2018-05-02T02:50:47.112Z,93.00
2018-05-02T02:55:50.577Z,93.40
2018-05-02T03:00:53.921Z,93.70
2018-05-02T03:05:56.997Z,93.60
2018-05-02T03:11:01.262Z,93.70
2018-05-02T03:16:04.316Z,93.60
2018-05-02T03:21:07.625Z,93.60
2018-05-02T03:31:15.517Z,93.50
2018-05-02T03:36:18.614Z,93.50
2018-05-02T03:41:22.845Z,93.40
2018-05-02T03:46:26.319Z,93.50
2018-05-02T03:51:29.390Z,93.40
2018-05-02T03:56:33.270Z,93.50
2018-05-02T04:01:55.159Z,93.30
2018-05-02T04:07:16.121Z,93.30
2018-05-02T04:12:20.718Z,93.50
2018-05-02T04:17:23.821Z,93.40
2018-05-02T04:22:28.410Z,93.40
2018-05-02T04:27:31.478Z,93.40
2018-05-02T04:32:34.551Z,93.50
2018-05-02T04:37:38.750Z,93.40
2018-05-02T04:42:41.874Z,93.30
2018-05-02T04:47:46.812Z,93.00
2018-05-02T04:52:50.653Z,93.00
2018-05-02T05:02:58.182Z,92.70
2018-05-02T05:08:02.762Z,92.50
2018-05-02T05:13:07.420Z,92.30
2018-05-02T05:18:10.638Z,92.00
2018-05-02T05:23:13.723Z,91.60
2018-05-02T05:28:16.834Z,91.00
2018-05-02T05:33:19.898Z,89.80
2018-05-02T05:38:22.998Z,86.10
2018-05-02T05:48:32.616Z,82.20
2018-05-02T05:53:36.099Z,78.00
2018-05-02T06:03:44.441Z,72.70
2018-05-02T06:08:48.694Z,70.20
2018-05-02T06:34:09.523Z,66.40
2018-05-02T06:39:13.010Z,64.90
2018-05-02T06:44:16.107Z,63.10
2018-05-02T06:49:19.215Z,63.80
2018-05-02T06:54:23.085Z,63.20
2018-05-02T06:59:26.154Z,62.20
2018-05-02T07:04:29.243Z,62.90
2018-05-02T07:09:33.083Z,63.40
2018-05-02T07:14:36.162Z,62.80
2018-05-02T07:19:39.998Z,63.30
2018-05-02T07:24:43.074Z,64.90
2018-05-02T07:29:46.582Z,64.80
2018-05-02T07:34:49.647Z,66.10
2018-05-02T07:39:53.127Z,64.80
2018-05-02T07:44:56.608Z,65.10
2018-05-02T07:49:59.697Z,65.50
2018-05-02T07:55:03.208Z,65.00
2018-05-02T08:05:11.375Z,63.60
2018-05-02T08:10:14.457Z,58.90
2018-05-02T08:15:17.542Z,59.80
2018-05-02T08:25:25.462Z,55.00
2018-05-02T08:30:28.578Z,54.60
2018-05-02T08:35:33.167Z,53.20
2018-05-02T08:40:36.650Z,47.60
2018-05-02T08:45:40.505Z,46.90
2018-05-02T08:50:43.602Z,45.30
2018-05-02T08:55:46.690Z,45.00
2018-05-02T09:00:50.845Z,42.80
2018-05-02T09:10:58.413Z,38.20
2018-05-02T09:16:01.497Z,41.60
2018-05-02T09:21:04.649Z,38.70
2018-05-02T09:26:07.774Z,39.70
2018-05-02T09:31:11.630Z,38.30
2018-05-02T09:36:14.721Z,39.40
2018-05-02T09:46:23.765Z,36.80
2018-05-02T09:51:26.866Z,36.00
2018-05-02T09:56:29.949Z,37.50
2018-05-02T10:01:34.169Z,40.00
2018-05-02T10:06:37.271Z,37.20
2018-05-02T10:11:40.362Z,40.20
2018-05-02T10:21:49.444Z,40.70
2018-05-02T10:26:53.668Z,39.00
2018-05-02T10:31:56.753Z,38.40
2018-05-02T10:36:59.842Z,40.10
2018-05-02T10:42:02.923Z,40.80
2018-05-02T10:47:06.010Z,41.60
2018-05-02T10:52:09.547Z,42.20
2018-05-02T10:57:12.995Z,41.30
2018-05-02T11:02:16.078Z,41.20
2018-05-02T11:07:19.158Z,43.00
2018-05-02T11:12:23.002Z,41.00
2018-05-02T11:17:27.219Z,41.30
2018-05-02T11:22:31.828Z,42.60
2018-05-02T11:37:47.251Z,46.30
2018-05-02T11:42:51.115Z,42.70
2018-05-02T11:47:54.205Z,43.90
2018-05-02T11:52:58.054Z,44.60
2018-05-02T11:58:01.538Z,43.90
2018-05-02T12:08:10.433Z,44.10
2018-05-02T12:23:23.294Z,45.00
2018-05-02T12:28:26.389Z,43.00
2018-05-02T12:33:30.230Z,42.70
2018-05-02T12:38:33.332Z,42.60
2018-05-02T12:43:36.532Z,44.10
2018-05-02T12:48:40.886Z,44.80
2018-05-02T12:58:49.186Z,46.60
2018-05-02T13:03:52.269Z,45.90
2018-05-02T13:08:56.514Z,45.00
2018-05-02T13:13:59.599Z,46.50
2018-05-02T13:19:03.083Z,47.30
2018-05-02T13:24:06.572Z,45.40
2018-05-02T13:29:09.656Z,47.50
2018-05-02T13:34:12.741Z,47.70
2018-05-02T13:44:21.773Z,45.60
2018-05-02T13:49:25.651Z,47.80
2018-05-02T13:54:29.881Z,47.10
2018-05-02T13:59:33.741Z,47.30
2018-05-02T14:04:37.587Z,47.90
2018-05-02T14:09:40.735Z,48.20
2018-05-02T14:14:44.581Z,46.80
2018-05-02T14:19:47.668Z,48.00
2018-05-02T14:24:51.911Z,49.70
2018-05-02T14:34:59.503Z,49.20
2018-05-02T14:40:03.379Z,50.20
2018-05-02T14:45:06.869Z,48.80
2018-05-02T14:50:09.954Z,49.00
2018-05-02T14:55:13.818Z,49.10
2018-05-02T15:10:26.903Z,50.00
2018-05-02T15:15:30.006Z,49.50
2018-05-02T15:20:33.090Z,48.90
2018-05-02T15:25:36.198Z,49.30
2018-05-02T15:30:39.289Z,49.70
2018-05-02T15:35:42.382Z,50.00
2018-05-02T15:40:45.481Z,50.20
2018-05-02T15:50:54.515Z,50.40
2018-05-02T15:55:58.769Z,50.20
2018-05-02T16:01:01.850Z,49.50
2018-05-02T16:06:04.945Z,51.50
2018-05-02T16:11:08.024Z,50.60
2018-05-02T16:16:11.106Z,50.90
2018-05-02T16:21:14.186Z,50.80
2018-05-02T16:26:17.277Z,51.70
2018-05-02T16:31:20.363Z,52.50
2018-05-02T16:36:24.219Z,52.30
2018-05-02T16:41:28.102Z,52.30
2018-05-02T16:46:31.954Z,52.90
2018-05-02T16:51:35.810Z,52.30
2018-05-02T16:56:38.988Z,52.80
2018-05-02T17:01:41.989Z,53.40
2018-05-02T17:06:46.614Z,54.10
2018-05-02T17:11:50.473Z,53.50
2018-05-02T17:21:59.766Z,54.30
2018-05-02T17:27:02.890Z,55.10
2018-05-02T17:32:05.974Z,54.20
2018-05-02T17:37:09.459Z,55.10
2018-05-02T17:42:13.375Z,56.30
2018-05-02T17:52:22.660Z,55.60
2018-05-02T17:57:26.520Z,55.90
2018-05-02T18:02:30.742Z,56.50
2018-05-02T18:07:34.590Z,56.00
2018-05-02T18:12:37.685Z,56.40
2018-05-02T18:17:40.817Z,56.20
2018-05-02T18:22:44.684Z,57.00
2018-05-02T18:27:48.920Z,57.00
2018-05-02T18:32:53.506Z,57.30
2018-05-02T18:37:56.620Z,58.30
2018-05-02T18:42:59.697Z,59.90
2018-05-02T18:48:02.794Z,61.80
2018-05-02T18:53:06.922Z,61.00
2018-05-02T18:58:10.962Z,61.80
2018-05-02T19:03:14.109Z,63.40
2018-05-02T19:13:22.635Z,66.00
2018-05-02T19:18:32.883Z,67.00
2018-05-02T19:23:36.119Z,67.40
2018-05-02T19:28:39.310Z,67.50
2018-05-02T19:33:48.398Z,66.90
2018-05-02T19:38:51.499Z,67.80
2018-05-02T19:44:00.048Z,68.30
2018-05-02T19:49:03.150Z,68.90
2018-05-02T19:54:06.332Z,68.90
2018-05-02T19:59:10.366Z,70.00
2018-05-02T20:04:13.530Z,70.50
2018-05-02T20:09:23.310Z,71.20
2018-05-02T20:14:26.439Z,71.20
2018-05-02T20:34:43.732Z,71.30
2018-05-02T20:39:46.871Z,71.30
2018-05-02T20:44:49.966Z,71.80
2018-05-02T20:49:53.046Z,71.70
2018-05-02T20:54:56.213Z,71.30
2018-05-02T20:59:59.332Z,71.00
2018-05-02T21:05:02.414Z,71.10
2018-05-02T21:10:05.497Z,71.70
2018-05-02T21:15:09.373Z,71.60
2018-05-02T21:20:12.574Z,71.10
2018-05-02T21:25:16.425Z,71.60
2018-05-02T21:30:19.519Z,70.10
2018-05-02T21:35:23.006Z,70.00
2018-05-02T21:40:26.085Z,70.10
2018-05-02T21:45:29.274Z,70.60
2018-05-02T21:50:34.222Z,70.10
2018-05-02T21:55:37.321Z,69.70
2018-05-02T22:00:40.628Z,70.20
2018-05-02T22:05:44.632Z,71.10
2018-05-02T22:10:48.959Z,71.30
2018-05-02T22:15:52.559Z,71.00
2018-05-02T22:20:55.633Z,71.70
2018-05-02T22:25:59.129Z,71.90
2018-05-02T22:31:02.650Z,72.80
2018-05-02T22:36:05.783Z,73.90
2018-05-02T22:41:08.926Z,74.90
2018-05-02T22:46:12.001Z,75.60
2018-05-02T22:51:15.313Z,76.10
2018-05-02T23:01:23.260Z,78.40
2018-05-02T23:06:27.183Z,79.90
2018-05-02T23:11:30.330Z,80.80
2018-05-02T23:16:33.409Z,81.40
2018-05-02T23:21:37.267Z,81.80
2018-05-02T23:26:40.349Z,82.50
2018-05-02T23:31:43.434Z,82.90
2018-05-02T23:36:46.517Z,83.40
2018-05-02T23:41:49.994Z,84.00
2018-05-02T23:46:53.080Z,83.90
2018-05-02T23:51:56.927Z,84.30
2018-05-02T23:57:00.502Z,84.70
